createdAt,value
2023-11-20T00:03:23.785Z,81
2023-11-20T00:13:23.650Z,81
2023-11-20T00:23:23.748Z,81
2023-11-20T00:33:24.100Z,81
2023-11-20T00:43:23.638Z,81
2023-11-20T00:53:24.078Z,81
2023-11-20T01:03:23.771Z,82
2023-11-20T01:13:23.602Z,82
2023-11-20T01:23:23.567Z,82
2023-11-20T01:33:24.017Z,83
2023-11-20T01:43:23.543Z,83
2023-11-20T01:53:24.001Z,83
2023-11-20T02:03:25.593Z,84
2023-11-20T02:13:23.511Z,84
2023-11-20T02:23:23.563Z,84
2023-11-20T02:33:23.552Z,84
2023-11-20T02:43:23.481Z,85
2023-11-20T02:53:23.515Z,85
2023-11-20T03:03:28.628Z,86
2023-11-20T03:13:23.457Z,86
2023-11-20T03:23:23.489Z,87
2023-11-20T03:33:23.488Z,87
2023-11-20T03:43:23.452Z,87
2023-11-20T03:53:23.900Z,87
2023-11-20T04:03:23.482Z,88
2023-11-20T04:13:23.425Z,88
2023-11-20T04:23:23.461Z,89
2023-11-20T04:33:23.426Z,89
2023-11-20T04:43:23.827Z,89
2023-11-20T04:53:23.841Z,89
2023-11-20T05:03:23.508Z,89
2023-11-20T05:13:23.368Z,89
2023-11-20T05:23:23.437Z,89
2023-11-20T05:33:23.360Z,89
2023-11-20T05:43:23.740Z,89
2023-11-20T05:53:23.374Z,89
2023-11-20T06:03:23.396Z,89
2023-11-20T06:13:23.409Z,89
2023-11-20T06:23:23.299Z,90
2023-11-20T06:33:23.305Z,90
2023-11-20T06:43:23.281Z,90
2023-11-20T06:53:23.461Z,90
2023-11-20T07:03:23.345Z,90
2023-11-20T07:13:26.237Z,90
2023-11-20T07:23:23.289Z,90
2023-11-20T07:33:23.697Z,91
2023-11-20T07:43:23.261Z,91
2023-11-20T07:53:23.200Z,91
2023-11-20T08:03:23.213Z,91
2023-11-20T08:13:23.224Z,91
2023-11-20T08:23:23.235Z,91
2023-11-20T08:33:23.399Z,91
2023-11-20T08:43:23.218Z,92
2023-11-20T08:53:23.237Z,92
2023-11-20T09:03:23.195Z,92
2023-11-20T09:13:23.168Z,93
2023-11-20T09:23:23.195Z,92
2023-11-20T09:33:23.553Z,93
2023-11-20T09:43:23.157Z,93
2023-11-20T09:53:23.136Z,92
2023-11-20T10:03:23.196Z,92
2023-11-20T10:13:23.135Z,92
2023-11-20T10:23:23.109Z,92
2023-11-20T10:33:23.181Z,92
2023-11-20T10:43:23.115Z,92
2023-11-20T10:53:23.046Z,93
2023-11-20T11:03:23.127Z,93
2023-11-20T11:13:23.452Z,93
2023-11-20T11:23:24.952Z,93
2023-11-20T11:33:23.025Z,93
2023-11-20T11:43:23.039Z,93
2023-11-20T11:53:23.192Z,93
2023-11-20T12:03:23.058Z,92
2023-11-20T12:13:22.984Z,92
2023-11-20T12:23:22.965Z,92
2023-11-20T12:33:22.911Z,92
2023-11-20T12:43:22.947Z,92
2023-11-20T12:53:22.917Z,92
2023-11-20T13:03:23.465Z,89
2023-11-20T13:13:22.926Z,88
2023-11-20T13:23:22.888Z,87
2023-11-20T13:33:23.313Z,84
2023-11-20T13:43:22.850Z,83
2023-11-20T13:53:22.812Z,83
2023-11-20T14:03:22.974Z,84
2023-11-20T14:13:22.826Z,85
2023-11-20T14:23:22.753Z,86
2023-11-20T14:33:22.786Z,86
2023-11-20T14:43:23.179Z,86
2023-11-20T14:53:22.776Z,86
2023-11-20T15:03:22.992Z,86
2023-11-20T15:13:22.845Z,86
2023-11-20T15:23:22.738Z,85
2023-11-20T15:33:22.685Z,85
2023-11-20T15:43:22.704Z,85
2023-11-20T15:53:22.870Z,85
2023-11-20T16:03:22.749Z,85
2023-11-20T16:13:22.675Z,85
2023-11-20T16:23:22.664Z,85
2023-11-20T16:33:22.638Z,85
2023-11-20T16:43:22.615Z,86
2023-11-20T16:53:22.624Z,86
2023-11-20T17:03:22.676Z,86
2023-11-20T17:13:22.588Z,86
2023-11-20T17:23:22.593Z,86
2023-11-20T17:33:22.573Z,86
2023-11-20T17:43:22.553Z,86
2023-11-20T17:53:22.552Z,85
2023-11-20T18:03:22.638Z,86
2023-11-20T18:13:22.479Z,86
2023-11-20T18:23:22.506Z,86
2023-11-20T18:33:22.510Z,86
2023-11-20T18:43:22.453Z,86
2023-11-20T18:53:22.464Z,86
2023-11-20T19:03:22.510Z,86
2023-11-20T19:13:24.400Z,86
2023-11-20T19:23:23.383Z,87
2023-11-20T19:34:55.687Z,87
2023-11-20T19:43:22.412Z,87
2023-11-20T19:53:22.424Z,88
2023-11-20T20:03:22.605Z,88
2023-11-20T20:13:22.382Z,88
2023-11-20T20:23:22.404Z,89
2023-11-20T20:33:22.378Z,89
2023-11-20T20:43:22.348Z,89
2023-11-20T20:53:22.366Z,89
2023-11-20T21:03:22.350Z,89
2023-11-20T21:13:22.329Z,89
2023-11-20T21:23:22.520Z,89
2023-11-20T21:33:22.334Z,89
2023-11-20T21:43:22.382Z,89
2023-11-20T21:53:22.263Z,89
2023-11-20T22:03:22.355Z,90
2023-11-20T22:13:22.736Z,90
2023-11-20T22:23:22.223Z,89
2023-11-20T22:33:22.711Z,89
2023-11-20T22:43:22.230Z,89
2023-11-20T22:53:22.212Z,89
2023-11-20T23:03:22.279Z,89
2023-11-20T23:13:22.204Z,89
2023-11-20T23:23:22.623Z,89
2023-11-20T23:33:22.155Z,90
2023-11-20T23:43:22.351Z,90
2023-11-20T23:53:22.157Z,90
